createdAt,value
2019-02-28T00:00:17.839Z,99.90
2019-02-28T00:02:44.039Z,99.90
2019-02-28T00:05:10.259Z,99.90
2019-02-28T00:07:36.439Z,99.90
2019-02-28T00:10:05.415Z,99.90
2019-02-28T00:12:31.549Z,99.90
2019-02-28T00:14:58.612Z,99.90
2019-02-28T00:17:25.762Z,99.90
2019-02-28T00:19:52.215Z,99.90
2019-02-28T00:22:18.293Z,99.90
2019-02-28T00:24:44.586Z,99.90
2019-02-28T00:27:10.717Z,99.90
2019-02-28T00:29:36.823Z,99.90
2019-02-28T00:32:03.015Z,99.90
2019-02-28T00:34:29.109Z,99.90
2019-02-28T00:36:55.187Z,99.90
2019-02-28T00:39:21.271Z,99.90
2019-02-28T00:41:47.365Z,99.90
2019-02-28T00:44:13.450Z,99.90
2019-02-28T00:46:44.055Z,99.90
2019-02-28T00:49:07.813Z,99.90
2019-02-28T00:51:33.929Z,99.90
2019-02-28T00:54:00.066Z,99.90
2019-02-28T00:56:26.128Z,99.90
2019-02-28T00:58:52.263Z,99.90
2019-02-28T01:01:18.538Z,99.90
2019-02-28T01:03:44.646Z,99.90
2019-02-28T01:06:10.926Z,99.90
2019-02-28T01:08:37.032Z,99.90
2019-02-28T01:11:03.333Z,99.90
2019-02-28T01:13:29.457Z,99.90
2019-02-28T01:15:55.656Z,99.90
2019-02-28T01:18:21.818Z,99.90
2019-02-28T01:20:50.689Z,99.90
2019-02-28T01:23:15.931Z,99.90
2019-02-28T01:25:42.060Z,99.90
2019-02-28T01:28:08.272Z,99.90
2019-02-28T01:30:37.143Z,99.90
2019-02-28T01:33:02.393Z,99.90
2019-02-28T01:35:28.487Z,99.90
2019-02-28T01:37:54.667Z,99.90
2019-02-28T01:40:20.797Z,99.90
2019-02-28T01:42:46.922Z,99.90
2019-02-28T01:45:13.214Z,99.90
2019-02-28T01:47:39.548Z,99.90
2019-02-28T01:50:07.752Z,99.90
2019-02-28T01:52:33.840Z,99.90
2019-02-28T01:54:59.916Z,99.90
2019-02-28T01:57:26.032Z,99.90
2019-02-28T02:00:16.324Z,99.90
2019-02-28T02:02:42.402Z,99.90
2019-02-28T02:05:08.948Z,99.90
2019-02-28T02:07:35.698Z,99.90
2019-02-28T02:10:03.812Z,99.90
2019-02-28T02:12:31.673Z,99.90
2019-02-28T02:14:58.047Z,99.90
2019-02-28T02:17:24.176Z,99.90
2019-02-28T02:19:52.189Z,99.90
2019-02-28T02:22:18.288Z,99.90
2019-02-28T02:24:44.412Z,99.90
2019-02-28T02:27:10.552Z,99.90
2019-02-28T02:29:37.160Z,99.90
2019-02-28T02:32:03.576Z,99.90
2019-02-28T02:34:29.847Z,99.90
2019-02-28T02:36:56.151Z,99.90
2019-02-28T02:39:22.252Z,99.90
2019-02-28T02:41:48.424Z,99.90
2019-02-28T02:44:14.566Z,99.90
2019-02-28T02:46:40.776Z,99.90
2019-02-28T02:49:06.861Z,99.90
2019-02-28T02:51:32.983Z,99.90
2019-02-28T02:53:59.170Z,99.90
2019-02-28T02:56:25.294Z,99.90
2019-02-28T02:58:51.589Z,99.90
2019-02-28T03:01:17.745Z,99.90
2019-02-28T03:03:44.586Z,99.90
2019-02-28T03:06:13.992Z,99.90
2019-02-28T03:08:38.849Z,99.90
2019-02-28T03:11:04.979Z,99.90
2019-02-28T03:13:31.098Z,99.90
2019-02-28T03:15:59.248Z,99.90
2019-02-28T03:18:25.350Z,99.90
2019-02-28T03:20:51.589Z,99.90
2019-02-28T03:23:17.803Z,99.90
2019-02-28T03:25:44.031Z,99.90
2019-02-28T03:28:10.201Z,99.90
2019-02-28T03:30:36.341Z,99.90
2019-02-28T03:33:02.697Z,99.90
2019-02-28T03:35:40.470Z,99.90
2019-02-28T03:37:56.974Z,99.90
2019-02-28T03:40:23.198Z,99.90
2019-02-28T03:42:49.283Z,99.90
2019-02-28T03:45:15.499Z,99.90
2019-02-28T03:47:41.784Z,99.90
2019-02-28T03:50:08.865Z,99.90
2019-02-28T03:52:42.241Z,99.90
2019-02-28T03:55:06.145Z,99.90
2019-02-28T03:57:32.518Z,99.90
2019-02-28T03:59:58.735Z,99.90
2019-02-28T04:02:25.426Z,99.90
2019-02-28T04:04:51.908Z,99.90
2019-02-28T04:07:18.038Z,99.90
2019-02-28T04:09:45.278Z,99.90
2019-02-28T04:12:11.682Z,99.90
2019-02-28T04:14:37.881Z,99.90
2019-02-28T04:17:03.998Z,99.90
2019-02-28T04:19:30.093Z,99.90
2019-02-28T04:21:56.195Z,99.90
2019-02-28T04:24:22.325Z,99.90
2019-02-28T04:26:48.411Z,99.90
2019-02-28T04:29:14.570Z,99.90
2019-02-28T04:31:40.640Z,99.90
2019-02-28T04:34:12.891Z,99.90
2019-02-28T04:36:35.684Z,99.90
2019-02-28T04:39:05.765Z,99.90
2019-02-28T04:41:32.919Z,99.90
2019-02-28T04:43:59.882Z,99.90
2019-02-28T04:46:28.343Z,99.90
2019-02-28T04:48:54.011Z,99.90
2019-02-28T04:51:20.139Z,99.90
2019-02-28T04:53:46.382Z,99.90
2019-02-28T04:56:12.549Z,99.90
2019-02-28T04:58:38.754Z,99.90
2019-02-28T05:01:04.873Z,99.90
2019-02-28T05:03:30.940Z,99.90
2019-02-28T05:05:57.100Z,99.90
2019-02-28T05:08:23.182Z,99.90
2019-02-28T05:10:49.309Z,99.90
2019-02-28T05:13:45.433Z,99.90
2019-02-28T05:16:12.347Z,99.90
2019-02-28T05:18:37.778Z,99.90
2019-02-28T05:21:03.959Z,99.90
2019-02-28T05:23:30.151Z,99.90
2019-02-28T05:25:56.254Z,99.90
2019-02-28T05:28:22.330Z,99.90
2019-02-28T05:30:50.201Z,99.90
2019-02-28T05:33:16.473Z,99.90
2019-02-28T05:35:42.620Z,99.90
2019-02-28T05:38:08.753Z,99.90
2019-02-28T05:40:40.204Z,99.90
2019-02-28T05:43:02.939Z,99.90
2019-02-28T05:45:29.156Z,99.90
2019-02-28T05:47:55.290Z,99.90
2019-02-28T05:50:21.402Z,99.90
2019-02-28T05:52:47.742Z,99.90
2019-02-28T05:55:14.091Z,99.90
2019-02-28T05:57:43.387Z,99.90
2019-02-28T06:00:10.781Z,99.90
2019-02-28T06:02:36.901Z,99.90
2019-02-28T06:05:04.682Z,99.90
2019-02-28T06:07:30.826Z,99.90
2019-02-28T06:09:56.899Z,99.90
2019-02-28T06:12:23.000Z,99.90
2019-02-28T06:14:49.084Z,99.90
2019-02-28T06:17:17.339Z,99.90
2019-02-28T06:19:44.188Z,99.90
2019-02-28T06:22:10.555Z,99.90
2019-02-28T06:24:36.746Z,99.90
2019-02-28T06:27:03.700Z,99.90
2019-02-28T06:29:32.555Z,99.90
2019-02-28T06:31:58.803Z,99.90
2019-02-28T06:34:25.046Z,99.90
2019-02-28T06:36:51.131Z,99.90
2019-02-28T06:39:17.599Z,99.90
2019-02-28T06:41:43.886Z,99.90
2019-02-28T06:44:10.030Z,99.90
2019-02-28T06:46:36.184Z,99.90
2019-02-28T06:49:07.026Z,99.90
2019-02-28T06:51:30.670Z,99.90
2019-02-28T06:53:56.816Z,99.90
2019-02-28T06:56:23.233Z,99.90
2019-02-28T06:58:49.578Z,99.90
2019-02-28T07:01:15.698Z,99.90
2019-02-28T07:03:42.547Z,99.90
2019-02-28T07:06:08.875Z,99.90
2019-02-28T07:08:35.041Z,99.90
2019-02-28T07:11:01.374Z,99.90
2019-02-28T07:13:27.576Z,99.90
2019-02-28T07:15:55.540Z,99.90
2019-02-28T07:18:21.729Z,99.90
2019-02-28T07:20:48.736Z,99.90
2019-02-28T07:23:14.916Z,99.90
2019-02-28T07:25:41.083Z,99.90
2019-02-28T07:28:07.387Z,99.90
2019-02-28T07:30:33.713Z,99.90
2019-02-28T07:32:59.923Z,99.90
2019-02-28T07:35:26.142Z,99.90
2019-02-28T07:37:54.359Z,99.90
2019-02-28T07:40:20.243Z,99.90
2019-02-28T07:42:46.597Z,99.90
2019-02-28T07:45:13.456Z,99.90
2019-02-28T07:47:39.639Z,99.90
2019-02-28T07:50:10.770Z,99.90
2019-02-28T07:52:37.059Z,99.90
2019-02-28T07:55:06.857Z,99.90
2019-02-28T07:57:32.955Z,99.90
2019-02-28T07:59:59.975Z,99.90
2019-02-28T08:02:26.271Z,99.90
2019-02-28T08:04:54.536Z,99.90
2019-02-28T08:07:20.448Z,99.90
2019-02-28T08:09:46.677Z,99.90
2019-02-28T08:12:12.998Z,99.90
2019-02-28T08:14:39.076Z,99.90
2019-02-28T08:17:08.754Z,99.90
2019-02-28T08:19:33.623Z,99.90
2019-02-28T08:21:59.869Z,99.90
2019-02-28T08:24:26.656Z,99.90
2019-02-28T08:26:53.509Z,99.90
2019-02-28T08:29:20.831Z,99.90
2019-02-28T08:31:47.263Z,99.90
2019-02-28T08:34:13.359Z,99.90
2019-02-28T08:36:39.491Z,99.90
2019-02-28T08:39:08.878Z,99.90
2019-02-28T08:41:35.905Z,99.90
2019-02-28T08:44:02.115Z,99.90
2019-02-28T08:46:28.199Z,99.90
2019-02-28T08:48:54.445Z,99.90
2019-02-28T08:51:20.911Z,99.90
2019-02-28T08:53:51.371Z,99.90
2019-02-28T08:56:16.601Z,99.90
2019-02-28T08:58:42.772Z,99.90
2019-02-28T09:01:08.937Z,99.90
2019-02-28T09:03:35.052Z,99.90
2019-02-28T09:06:03.811Z,99.90
2019-02-28T09:08:29.241Z,99.90
2019-02-28T09:10:55.418Z,99.90
2019-02-28T09:13:21.541Z,99.90
2019-02-28T09:15:47.768Z,99.90
2019-02-28T09:18:13.867Z,99.90
2019-02-28T09:20:41.413Z,99.90
2019-02-28T09:23:07.937Z,99.90
2019-02-28T09:25:34.019Z,99.90
2019-02-28T09:28:00.403Z,99.90
2019-02-28T09:30:39.029Z,99.90
2019-02-28T09:33:05.260Z,99.90
2019-02-28T09:35:31.474Z,99.90
2019-02-28T09:37:57.556Z,99.90
2019-02-28T09:40:25.798Z,99.90
2019-02-28T09:42:52.012Z,99.90
2019-02-28T09:45:23.998Z,99.90
2019-02-28T09:47:50.135Z,99.90
2019-02-28T09:50:19.298Z,99.90
2019-02-28T09:52:46.411Z,99.90
2019-02-28T09:55:12.883Z,99.90
2019-02-28T09:57:39.085Z,99.90
2019-02-28T10:00:11.835Z,99.90
2019-02-28T10:02:40.468Z,99.90
2019-02-28T10:05:09.067Z,99.90
2019-02-28T10:07:35.421Z,99.90
2019-02-28T10:10:01.789Z,99.90
2019-02-28T10:12:28.011Z,99.90
2019-02-28T10:14:54.210Z,99.90
2019-02-28T10:17:20.353Z,99.90
2019-02-28T10:19:49.187Z,99.90
2019-02-28T10:22:14.466Z,99.90
2019-02-28T10:24:40.563Z,99.90
2019-02-28T10:27:06.660Z,99.90
2019-02-28T10:29:32.747Z,99.90
2019-02-28T10:31:58.818Z,99.90
2019-02-28T10:34:26.416Z,99.90
2019-02-28T10:36:53.002Z,99.90
2019-02-28T10:39:19.178Z,99.90
2019-02-28T10:41:45.319Z,99.90
2019-02-28T10:44:11.442Z,99.90
2019-02-28T10:46:37.555Z,99.90
2019-02-28T10:49:03.754Z,99.90
2019-02-28T10:51:29.880Z,99.90
2019-02-28T10:53:56.082Z,99.90
2019-02-28T10:56:22.193Z,99.90
2019-02-28T10:58:49.977Z,99.90
2019-02-28T11:01:17.397Z,99.90
2019-02-28T11:03:43.786Z,99.90
2019-02-28T11:06:09.902Z,99.90
2019-02-28T11:08:36.182Z,99.90
2019-02-28T11:11:02.786Z,99.90
2019-02-28T11:13:31.938Z,99.90
2019-02-28T11:15:57.127Z,99.90
2019-02-28T11:18:23.416Z,99.90
2019-02-28T11:20:49.704Z,99.90
2019-02-28T11:23:16.246Z,99.90
2019-02-28T11:25:42.377Z,99.90
2019-02-28T11:28:08.790Z,99.90
2019-02-28T11:30:36.129Z,99.90
2019-02-28T11:33:04.356Z,99.90
2019-02-28T11:35:31.088Z,99.90
2019-02-28T11:37:57.389Z,99.90
2019-02-28T11:40:26.463Z,99.90
2019-02-28T11:42:52.871Z,99.90
2019-02-28T11:45:35.610Z,99.90
2019-02-28T11:48:06.208Z,99.90
2019-02-28T11:50:32.260Z,99.90
2019-02-28T11:53:03.278Z,99.90
2019-02-28T11:55:27.149Z,99.90
2019-02-28T11:57:53.586Z,99.90
2019-02-28T12:00:27.079Z,99.90
2019-02-28T12:02:59.733Z,99.90
2019-02-28T12:05:21.791Z,99.90
2019-02-28T12:07:47.953Z,99.90
2019-02-28T12:10:14.223Z,99.90
2019-02-28T12:12:41.594Z,99.90
2019-02-28T12:15:20.152Z,99.90
2019-02-28T12:17:46.476Z,99.90
2019-02-28T12:20:13.590Z,99.90
2019-02-28T12:22:39.909Z,99.90
2019-02-28T12:25:11.914Z,99.00
2019-02-28T12:27:38.070Z,98.90
2019-02-28T12:30:10.230Z,99.90
2019-02-28T12:32:36.383Z,99.70
2019-02-28T12:35:04.117Z,99.90
2019-02-28T12:37:30.423Z,99.90
2019-02-28T12:39:56.571Z,99.20
2019-02-28T12:42:22.645Z,98.90
2019-02-28T12:44:49.014Z,99.00
2019-02-28T12:47:15.885Z,98.50
2019-02-28T12:49:42.081Z,99.30
2019-02-28T12:52:11.323Z,99.90
2019-02-28T12:54:36.419Z,98.30
2019-02-28T12:57:02.864Z,96.10
2019-02-28T12:59:29.078Z,97.50
2019-02-28T13:01:55.244Z,96.90
2019-02-28T13:04:21.344Z,97.10
2019-02-28T13:06:47.621Z,96.60
2019-02-28T13:09:16.846Z,97.00
2019-02-28T13:11:41.721Z,96.70
2019-02-28T13:14:07.945Z,95.60
2019-02-28T13:16:34.123Z,96.00
2019-02-28T13:19:00.589Z,94.90
2019-02-28T13:21:26.889Z,94.70
2019-02-28T13:23:53.139Z,94.40
2019-02-28T13:26:19.429Z,95.10
2019-02-28T13:28:45.525Z,95.10
2019-02-28T13:31:12.038Z,95.60
2019-02-28T13:33:38.251Z,95.20
2019-02-28T13:36:04.467Z,95.90
2019-02-28T13:38:30.605Z,96.20
2019-02-28T13:40:56.774Z,96.20
2019-02-28T13:43:22.961Z,96.10
2019-02-28T13:45:50.979Z,96.00
2019-02-28T13:48:25.588Z,96.40
2019-02-28T13:50:45.602Z,96.40
2019-02-28T13:53:19.044Z,96.70
2019-02-28T13:55:40.096Z,96.60
2019-02-28T13:58:06.483Z,96.80
2019-02-28T14:00:43.619Z,96.70
2019-02-28T14:03:10.530Z,97.30
2019-02-28T14:05:40.683Z,97.80
2019-02-28T14:08:09.735Z,97.90
2019-02-28T14:10:34.559Z,98.30
2019-02-28T14:13:01.269Z,98.20
2019-02-28T14:15:42.388Z,98.40
2019-02-28T14:18:10.704Z,98.90
2019-02-28T14:20:36.666Z,99.40
2019-02-28T14:23:03.144Z,99.30
2019-02-28T14:25:29.356Z,99.30
2019-02-28T14:27:56.846Z,97.70
2019-02-28T14:30:24.930Z,97.20
2019-02-28T14:32:51.122Z,96.20
2019-02-28T14:35:22.755Z,95.10
2019-02-28T14:37:47.836Z,93.70
2019-02-28T14:40:17.959Z,92.70
2019-02-28T14:42:44.407Z,91.80
2019-02-28T14:45:18.647Z,91.00
2019-02-28T14:47:45.092Z,90.80
2019-02-28T14:50:15.522Z,90.10
2019-02-28T14:52:41.095Z,89.20
2019-02-28T14:55:10.150Z,87.50
2019-02-28T14:57:36.350Z,89.00
2019-02-28T15:00:06.553Z,89.80
2019-02-28T15:02:33.436Z,88.30
2019-02-28T15:04:59.608Z,88.80
2019-02-28T15:07:25.780Z,87.90
2019-02-28T15:09:51.983Z,89.60
2019-02-28T15:12:20.349Z,88.80
2019-02-28T15:14:46.120Z,89.90
2019-02-28T15:17:12.400Z,90.60
2019-02-28T15:19:38.559Z,91.80
2019-02-28T15:22:04.687Z,91.40
2019-02-28T15:24:30.886Z,91.40
2019-02-28T15:26:56.969Z,90.70
2019-02-28T15:29:24.346Z,89.70
2019-02-28T15:31:50.766Z,90.10
2019-02-28T15:34:16.886Z,91.10
2019-02-28T15:36:43.068Z,91.10
2019-02-28T15:39:09.144Z,91.30
2019-02-28T15:41:35.310Z,91.20
2019-02-28T15:44:01.490Z,90.90
2019-02-28T15:46:27.732Z,91.70
2019-02-28T15:48:53.911Z,91.20
2019-02-28T15:51:20.077Z,91.80
2019-02-28T15:53:46.870Z,92.80
2019-02-28T15:56:19.740Z,93.80
2019-02-28T15:58:42.535Z,94.80
2019-02-28T16:01:08.943Z,95.60
2019-02-28T16:03:35.024Z,96.20
2019-02-28T16:06:01.205Z,96.70
2019-02-28T16:08:28.311Z,97.00
2019-02-28T16:10:55.290Z,97.40
2019-02-28T16:13:22.665Z,97.90
2019-02-28T16:15:50.316Z,98.20
2019-02-28T16:18:16.597Z,98.80
2019-02-28T16:20:42.845Z,98.90
2019-02-28T16:23:09.029Z,99.70
2019-02-28T16:25:36.420Z,99.90
2019-02-28T16:28:07.740Z,99.90
2019-02-28T16:30:34.203Z,99.90
2019-02-28T16:33:00.632Z,99.90
2019-02-28T16:35:28.980Z,99.90
2019-02-28T16:37:55.137Z,99.90
2019-02-28T16:40:28.767Z,99.90
2019-02-28T16:42:54.924Z,99.90
2019-02-28T16:45:25.920Z,99.90
2019-02-28T16:47:52.064Z,99.90
2019-02-28T16:50:18.762Z,99.90
2019-02-28T16:52:46.097Z,99.90
2019-02-28T16:55:12.514Z,99.90
2019-02-28T16:57:38.762Z,99.90
2019-02-28T17:00:10.612Z,99.90
2019-02-28T17:02:37.044Z,99.90
2019-02-28T17:05:06.128Z,99.90
2019-02-28T17:07:32.298Z,99.90
2019-02-28T17:10:01.319Z,99.90
2019-02-28T17:12:31.120Z,99.90
2019-02-28T17:14:57.698Z,99.90
2019-02-28T17:17:25.822Z,99.90
2019-02-28T17:19:51.975Z,99.90
2019-02-28T17:22:18.066Z,99.90
2019-02-28T17:24:46.113Z,99.90
2019-02-28T17:27:14.104Z,99.90
2019-02-28T17:29:42.181Z,99.90
2019-02-28T17:32:08.396Z,99.90
2019-02-28T17:34:34.675Z,99.90
2019-02-28T17:37:00.867Z,99.90
2019-02-28T17:39:27.461Z,99.90
2019-02-28T17:41:53.590Z,99.90
2019-02-28T17:44:23.527Z,99.90
2019-02-28T17:47:00.544Z,99.90
2019-02-28T17:49:54.073Z,99.90
2019-02-28T17:52:24.065Z,99.90
2019-02-28T17:54:57.384Z,99.90
2019-02-28T17:57:52.550Z,99.90
2019-02-28T18:00:34.838Z,99.90
2019-02-28T18:03:06.400Z,99.90
2019-02-28T18:05:53.333Z,99.90
2019-02-28T18:08:37.537Z,99.90
2019-02-28T18:11:37.610Z,99.90
2019-02-28T18:14:10.345Z,99.90
2019-02-28T18:17:04.271Z,99.90
2019-02-28T18:19:40.208Z,99.90
2019-02-28T18:22:21.655Z,99.90
2019-02-28T18:25:09.907Z,99.90
2019-02-28T18:27:39.892Z,99.90
2019-02-28T18:30:27.669Z,99.90
2019-02-28T18:32:53.818Z,99.90
2019-02-28T18:35:20.506Z,99.90
2019-02-28T18:37:46.818Z,99.90
2019-02-28T18:40:13.137Z,99.90
2019-02-28T18:42:39.272Z,99.90
2019-02-28T18:45:07.911Z,99.90
2019-02-28T18:47:36.024Z,99.90
2019-02-28T18:50:03.615Z,99.90
2019-02-28T18:52:29.852Z,99.90
2019-02-28T18:55:16.062Z,99.90
2019-02-28T18:57:42.335Z,99.90
2019-02-28T19:00:13.078Z,99.90
2019-02-28T19:02:39.156Z,99.90
2019-02-28T19:05:06.942Z,99.90
2019-02-28T19:07:33.420Z,99.90
2019-02-28T19:09:59.509Z,99.90
2019-02-28T19:12:25.657Z,99.90
2019-02-28T19:14:52.427Z,99.90
2019-02-28T19:17:18.655Z,99.90
2019-02-28T19:19:44.892Z,99.90
2019-02-28T19:22:13.054Z,99.90
2019-02-28T19:24:39.232Z,99.90
2019-02-28T19:27:05.437Z,99.90
2019-02-28T19:29:31.692Z,99.90
2019-02-28T19:31:57.870Z,99.90
2019-02-28T19:34:24.220Z,99.90
2019-02-28T19:36:50.510Z,99.90
2019-02-28T19:39:16.608Z,99.90
2019-02-28T19:41:42.748Z,99.90
2019-02-28T19:44:09.088Z,99.90
2019-02-28T19:46:35.331Z,99.90
2019-02-28T19:49:01.701Z,99.90
2019-02-28T19:51:28.232Z,99.90
2019-02-28T19:53:54.444Z,99.90
2019-02-28T19:56:20.783Z,99.90
2019-02-28T19:58:46.873Z,99.90
2019-02-28T20:01:18.983Z,99.90
2019-02-28T20:03:41.309Z,99.90
2019-02-28T20:06:07.667Z,99.90
2019-02-28T20:08:33.810Z,99.90
2019-02-28T20:10:59.921Z,99.90
2019-02-28T20:13:26.070Z,99.90
2019-02-28T20:15:52.386Z,99.90
2019-02-28T20:18:18.637Z,99.90
2019-02-28T20:20:45.002Z,99.90
2019-02-28T20:23:11.138Z,99.90
2019-02-28T20:25:37.303Z,99.90
2019-02-28T20:28:05.324Z,99.90
2019-02-28T20:30:31.965Z,99.90
2019-02-28T20:32:58.324Z,99.90
2019-02-28T20:35:26.851Z,99.90
2019-02-28T20:37:52.609Z,99.90
2019-02-28T20:40:27.471Z,99.90
2019-02-28T20:42:53.654Z,99.90
2019-02-28T20:45:20.012Z,99.90
2019-02-28T20:47:46.243Z,99.90
2019-02-28T20:50:22.084Z,99.90
2019-02-28T20:52:48.264Z,99.90
2019-02-28T20:55:14.372Z,99.90
2019-02-28T20:57:40.873Z,99.90
2019-02-28T21:00:10.886Z,99.90
2019-02-28T21:02:37.075Z,99.90
2019-02-28T21:05:04.640Z,99.90
2019-02-28T21:07:30.880Z,99.90
2019-02-28T21:09:57.027Z,99.90
2019-02-28T21:12:23.257Z,99.90
2019-02-28T21:14:49.495Z,99.90
2019-02-28T21:17:15.664Z,99.90
2019-02-28T21:19:41.873Z,99.90
2019-02-28T21:22:08.127Z,99.90
2019-02-28T21:24:34.314Z,99.90
2019-02-28T21:27:00.512Z,99.90
2019-02-28T21:29:26.726Z,99.90
2019-02-28T21:31:52.968Z,99.90
2019-02-28T21:34:19.269Z,99.90
2019-02-28T21:36:45.571Z,99.90
2019-02-28T21:39:11.848Z,99.90
2019-02-28T21:41:38.000Z,99.90
2019-02-28T21:44:04.248Z,99.90
2019-02-28T21:46:30.477Z,99.90
2019-02-28T21:48:56.693Z,99.90
2019-02-28T21:51:22.944Z,99.90
2019-02-28T21:53:49.129Z,99.90
2019-02-28T21:56:15.310Z,99.90
2019-02-28T21:58:41.533Z,99.90
2019-02-28T22:01:07.879Z,99.90
2019-02-28T22:03:34.094Z,99.90
2019-02-28T22:06:00.360Z,99.90
2019-02-28T22:08:26.572Z,99.90
2019-02-28T22:10:52.806Z,99.90
2019-02-28T22:13:18.996Z,99.90
2019-02-28T22:15:45.084Z,99.90
2019-02-28T22:18:11.240Z,99.90
2019-02-28T22:20:37.353Z,99.90
2019-02-28T22:23:03.663Z,99.90
2019-02-28T22:25:30.043Z,99.90
2019-02-28T22:27:56.222Z,99.90
2019-02-28T22:30:43.394Z,99.90
2019-02-28T22:33:26.593Z,99.90
2019-02-28T22:36:03.811Z,99.90
2019-02-28T22:38:30.141Z,99.90
2019-02-28T22:40:56.258Z,99.90
2019-02-28T22:43:22.442Z,99.90
2019-02-28T22:45:48.543Z,99.90
2019-02-28T22:48:14.675Z,99.90
2019-02-28T22:50:40.922Z,99.90
2019-02-28T22:53:07.229Z,99.90
2019-02-28T22:55:33.430Z,99.90
2019-02-28T22:58:09.182Z,99.90
2019-02-28T23:01:00.858Z,99.90
2019-02-28T23:03:29.353Z,99.90
2019-02-28T23:05:55.617Z,99.90
2019-02-28T23:08:21.898Z,99.90
2019-02-28T23:10:48.106Z,99.90
2019-02-28T23:13:14.236Z,99.90
2019-02-28T23:15:40.320Z,99.90
2019-02-28T23:18:06.523Z,99.90
2019-02-28T23:20:32.602Z,99.90
2019-02-28T23:22:58.699Z,99.90
2019-02-28T23:25:24.921Z,99.90
2019-02-28T23:27:54.895Z,99.90
2019-02-28T23:30:31.053Z,99.90
2019-02-28T23:32:59.716Z,99.90
2019-02-28T23:35:29.357Z,99.90
2019-02-28T23:37:55.673Z,99.90
2019-02-28T23:40:21.792Z,99.90
2019-02-28T23:42:47.908Z,99.90
2019-02-28T23:45:14.139Z,99.90
2019-02-28T23:47:40.414Z,99.90
2019-02-28T23:50:08.334Z,99.90
2019-02-28T23:52:34.580Z,99.90
2019-02-28T23:55:00.903Z,99.90
2019-02-28T23:57:27.000Z,99.90
2019-02-28T23:59:53.253Z,99.90
